Lock Haven, PA

3:13 PM EDT on August 25, 2016 (GMT -0400)
NonFedAWOS | | Change Station

Elev 556 ft 41.14 °N, 77.42 °W | Updated 34 minutes ago

Partly Cloudy
Partly Cloudy
82 °F
Feels Like 86 °F
N
0
Wind Variable Wind from North
Gusts 0.0 mph

Today
High -- | Low -- °F
--% Chance of Precip.
Yesterday
High -- | Low -- °F
Precip. -- in
Pressure 29.99 in
Visibility 10.0 miles
Clouds Few 6000 ft
Heat Index 86 °F
Dew Point 72 °F
Humidity 70%
Rainfall in
Snow Depth Not available.
6:29 AM 7:52 PM
Last Quarter, 43% visible
METAR KIPT 251854Z VRB03KT 10SM FEW060 29/22 A3000 RMK AO2 SLP153 T02890217
Pressure 29.99 in
Visibility 10.0 miles
Clouds Few 6000 ft
Heat Index 86 °F
Dew Point 72 °F
Humidity 70%
Rainfall in
Snow Depth Not available.
6:29 AM 7:52 PM
Last Quarter, 43% visible
METAR KIPT 251854Z VRB03KT 10SM FEW060 29/22 A3000 RMK AO2 SLP153 T02890217
A tropical disturbance pushing toward the Bahamas, is expected to develop into a tropical depression or storm, and will likely target Florida and the Gulf Coast this weekend into next week.

Right now, the disturbance remains a broad area of low pressure pushing through the Dominican Republic and Haiti, headed toward the southeast Bahamas. Rainfall totals over 3 inches (with locally higher amounts) are expected in HispaƱiola, particularly over elevated terrain.

10-Day Weather Forecast

Almanac

Astronomy

Aug. 25, 2016 Rise Set
Actual Time
Civil Twilight
Nautical Twilight
Astronomical Twilight
Moon
Length of Visible Light
Length of Day
Tomorrow will be .
, % of the Moon is Illuminated

Today's Extremes

State Highs State Lows

Community

WunderPhotos

Upload Photos

1,934,907 photos uploaded!

WunderBlog® & News

Nearby

Air Quality

  Air Quality AQ Index Pollutant
Not available.

Snow Depth

Station Depth Elevation

Earthquake Activity

City Distance Mag. Time & Date
Minimum magnitude displayed is 2.5.

Coastal Water Temperatures

Place Temperature

Stations

Nearby Weather Stations

Station Location Temp. Windchill Dew Point Humidity Wind Precip. Elev Updated Type
                   

Watches & Warnings

There are currently no watches in effect.